createdAt,value
2023-02-03T00:02:08.980Z,15.67
2023-02-03T00:04:36.485Z,9.67
2023-02-03T00:07:04.225Z,5.83
2023-02-03T00:09:31.619Z,5.63
2023-02-03T00:11:59.021Z,5.37
2023-02-03T00:14:26.466Z,4.30
2023-02-03T00:16:53.931Z,4.63
2023-02-03T00:19:21.254Z,4.93
2023-02-03T00:21:48.701Z,4.90
2023-02-03T00:24:16.242Z,5.80
2023-02-03T00:26:43.880Z,6.70
2023-02-03T00:29:11.455Z,5.47
2023-02-03T00:31:39.022Z,5.57
2023-02-03T01:28:01.038Z,3.40
2023-02-03T01:30:29.068Z,4.40
2023-02-03T01:32:56.691Z,2.57
2023-02-03T01:39:43.834Z,2.57
2023-02-03T01:42:40.496Z,2.80
2023-02-03T01:45:21.833Z,2.30
2023-02-03T07:39:12.476Z,4.87
2023-02-03T07:41:40.639Z,4.97
2023-02-03T07:44:09.953Z,4.73
2023-02-03T07:46:40.396Z,3.83
2023-02-03T07:49:08.564Z,6.60
2023-02-03T07:51:36.300Z,8.83
2023-02-03T07:54:03.639Z,4.80
2023-02-03T07:56:33.077Z,4.20
2023-02-03T07:59:00.695Z,4.23
2023-02-03T08:01:28.471Z,3.23
2023-02-03T08:03:56.095Z,14.03
2023-02-03T08:06:23.611Z,5.83
2023-02-03T08:08:51.078Z,7.17
2023-02-03T08:11:18.750Z,6.63
2023-02-03T08:13:46.164Z,4.37
2023-02-03T08:16:13.807Z,5.77
2023-02-03T08:18:41.424Z,6.17
2023-02-03T08:21:08.808Z,2.63
2023-02-03T08:23:36.595Z,4.57
2023-02-03T08:26:03.983Z,3.20
2023-02-03T08:28:31.359Z,2.87
2023-02-03T08:30:59.024Z,5.23
2023-02-03T08:33:26.479Z,3.13
2023-02-03T08:35:53.931Z,2.43
2023-02-03T08:38:22.606Z,3.33
2023-02-03T08:40:50.055Z,5.73
2023-02-03T08:43:17.707Z,1.97
2023-02-03T08:45:45.411Z,2.23
2023-02-03T08:48:13.115Z,3.10
2023-02-03T08:50:43.254Z,5.20
2023-02-03T08:53:11.534Z,4.37
2023-02-03T08:55:42.153Z,4.80
2023-02-03T08:58:09.670Z,2.67
2023-02-03T09:00:37.342Z,2.67
2023-02-03T09:03:04.767Z,3.07
2023-02-03T09:05:32.824Z,2.20
2023-02-03T09:08:00.285Z,4.47
2023-02-03T09:10:28.053Z,4.23
2023-02-03T09:12:56.508Z,4.63
2023-02-03T09:15:23.897Z,3.73
2023-02-03T09:17:51.528Z,5.53
2023-02-03T09:20:19.851Z,4.10
2023-02-03T09:22:47.467Z,2.70
2023-02-03T09:25:16.622Z,2.53
2023-02-03T09:27:44.356Z,4.53
2023-02-03T09:30:13.209Z,2.47
2023-02-03T09:32:40.915Z,3.17
2023-02-03T09:35:08.462Z,4.80
2023-02-03T09:37:35.892Z,4.33
2023-02-03T09:40:03.403Z,3.37
2023-02-03T09:43:32.392Z,6.57
2023-02-03T09:46:24.866Z,3.93
2023-02-03T09:48:59.501Z,2.70
2023-02-03T09:51:38.092Z,2.53
2023-02-03T09:54:09.281Z,5.93
2023-02-03T09:56:37.181Z,2.10
2023-02-03T09:59:05.099Z,3.27
2023-02-03T10:01:44.071Z,3.93
2023-02-03T10:04:23.579Z,5.10
2023-02-03T10:06:50.946Z,3.63
2023-02-03T10:09:53.502Z,2.33
2023-02-03T10:12:43.664Z,2.73
2023-02-03T10:15:27.522Z,3.13
2023-02-03T10:18:02.789Z,5.93
2023-02-03T10:20:55.607Z,4.43
2023-02-03T10:23:25.201Z,3.50
2023-02-03T10:25:58.069Z,3.10
2023-02-03T10:28:56.244Z,3.67
2023-02-03T10:31:34.395Z,2.10
2023-02-03T10:34:15.163Z,7.27
2023-02-03T10:37:05.032Z,2.07
2023-02-03T10:39:52.064Z,3.67
2023-02-03T10:42:19.893Z,3.13
2023-02-03T10:44:52.341Z,3.10
2023-02-03T10:47:31.718Z,5.63
2023-02-03T10:49:59.277Z,3.40
2023-02-03T10:52:28.893Z,3.67
2023-02-03T10:54:57.008Z,4.50
2023-02-03T10:57:24.454Z,5.63
2023-02-03T10:59:52.147Z,10.63
2023-02-03T11:02:30.917Z,6.57
2023-02-03T11:05:17.050Z,3.03
2023-02-03T11:07:44.645Z,4.33
2023-02-03T11:10:36.185Z,5.43
2023-02-03T11:13:16.898Z,5.60
2023-02-03T11:15:54.569Z,3.77
2023-02-03T11:18:52.700Z,4.83
2023-02-03T11:21:26.791Z,6.17
2023-02-03T11:24:02.331Z,9.23
2023-02-03T11:26:49.022Z,4.77
2023-02-03T11:29:23.931Z,6.10
2023-02-03T11:31:53.310Z,4.70
2023-02-03T11:34:24.599Z,3.67
2023-02-03T11:36:52.039Z,2.70
2023-02-03T11:39:37.583Z,2.87
2023-02-03T11:42:30.551Z,6.90
2023-02-03T11:45:14.510Z,3.07
2023-02-03T11:47:50.207Z,8.17
2023-02-03T11:50:20.215Z,3.80
2023-02-03T11:53:00.214Z,1.80
2023-02-03T11:55:35.171Z,3.87
2023-02-03T11:58:19.561Z,3.20
2023-02-03T12:01:19.360Z,5.03
2023-02-03T12:04:07.850Z,9.00
2023-02-03T12:07:01.462Z,6.53
2023-02-03T12:09:50.542Z,4.10
2023-02-03T12:12:20.960Z,5.47
2023-02-03T12:14:48.147Z,3.60
2023-02-03T12:17:45.379Z,5.53
2023-02-03T12:20:12.717Z,3.07
2023-02-03T12:23:14.678Z,3.97
2023-02-03T12:25:53.832Z,1.90
2023-02-03T12:28:36.723Z,2.10
2023-02-03T12:31:19.182Z,2.73
2023-02-03T12:33:53.691Z,2.60
2023-02-03T12:36:42.057Z,3.53
2023-02-03T12:39:17.481Z,1.97
2023-02-03T12:42:05.063Z,3.80
2023-02-03T12:57:46.005Z,2.80
2023-02-03T13:00:20.042Z,1.63
2023-02-03T13:03:25.407Z,2.27
2023-02-03T13:06:31.977Z,2.17
2023-02-03T13:09:36.730Z,2.73
2023-02-03T13:12:25.397Z,2.10
2023-02-03T13:15:03.779Z,2.80
2023-02-03T13:17:49.586Z,3.30
2023-02-03T13:20:21.500Z,4.07
2023-02-03T13:22:49.035Z,5.30
2023-02-03T13:25:25.473Z,5.40
2023-02-03T13:28:38.305Z,11.60
2023-02-03T13:31:23.470Z,2.67
2023-02-03T13:33:50.978Z,5.77
2023-02-03T13:36:33.622Z,2.50
2023-02-03T13:39:23.064Z,2.90
2023-02-03T13:41:56.069Z,2.67
2023-02-03T13:44:28.808Z,3.07
2023-02-03T13:46:57.842Z,3.40
2023-02-03T13:49:27.987Z,4.90
2023-02-03T13:51:55.511Z,6.23
2023-02-03T13:54:43.036Z,2.87
2023-02-03T13:57:42.951Z,3.60
2023-02-03T14:00:43.619Z,4.90
2023-02-03T14:03:20.892Z,3.60
2023-02-03T14:05:50.065Z,2.53
2023-02-03T14:08:26.457Z,5.37
2023-02-03T14:11:31.300Z,2.57
2023-02-03T14:14:10.414Z,4.10
2023-02-03T14:16:56.560Z,4.20
2023-02-03T14:19:26.626Z,4.23
2023-02-03T14:21:54.809Z,3.97
2023-02-03T14:24:22.299Z,3.60
2023-02-03T14:26:52.391Z,2.70
2023-02-03T14:29:36.581Z,6.37
2023-02-03T14:32:04.106Z,4.07
2023-02-03T14:34:41.248Z,6.10
2023-02-03T14:37:28.059Z,7.13
2023-02-03T14:40:20.289Z,4.00
2023-02-03T14:42:53.870Z,2.93
2023-02-03T14:45:36.394Z,2.83
2023-02-03T14:48:16.383Z,5.43
2023-02-03T14:51:16.193Z,7.03
2023-02-03T14:53:52.294Z,10.07
2023-02-03T14:57:00.601Z,5.63
2023-02-03T14:59:59.169Z,7.67
2023-02-03T15:02:28.279Z,21.00
2023-02-03T15:05:33.765Z,14.73
2023-02-03T15:08:02.958Z,8.63
2023-02-03T15:10:43.620Z,8.13
2023-02-03T15:13:40.498Z,14.07
2023-02-03T15:16:15.576Z,4.23
2023-02-03T15:18:43.163Z,3.13
2023-02-03T15:21:19.147Z,5.00
2023-02-03T15:23:51.468Z,9.50
2023-02-03T15:26:28.915Z,13.67
2023-02-03T15:29:02.688Z,4.93
2023-02-03T15:31:36.422Z,6.63
2023-02-03T15:34:28.959Z,5.37
2023-02-03T15:36:58.388Z,10.00
2023-02-03T15:39:50.718Z,5.57
2023-02-03T15:42:55.852Z,3.70
2023-02-03T15:45:29.367Z,2.60
2023-02-03T15:48:07.613Z,5.73
2023-02-03T15:50:37.933Z,3.37
2023-02-03T15:53:08.185Z,2.70
2023-02-03T15:55:46.617Z,3.37
2023-02-03T15:58:25.374Z,3.17
2023-02-03T16:01:17.723Z,2.13
2023-02-03T16:03:52.958Z,2.73
2023-02-03T16:06:40.874Z,1.73
2023-02-03T16:09:24.744Z,2.83
2023-02-03T16:12:05.694Z,1.83
2023-02-03T16:14:34.798Z,1.53
2023-02-03T16:17:05.866Z,2.73
2023-02-03T16:19:38.724Z,2.43
2023-02-03T16:22:25.808Z,2.57
2023-02-03T16:24:53.289Z,1.83
2023-02-03T16:27:27.673Z,2.83
2023-02-03T16:30:35.142Z,1.30
2023-02-03T16:33:31.932Z,2.80
2023-02-03T16:36:24.357Z,3.67
2023-02-03T16:39:10.326Z,1.63
2023-02-03T16:54:54.126Z,2.30
2023-02-03T16:57:21.881Z,2.00
2023-02-03T16:59:49.358Z,2.87
2023-02-03T17:02:16.954Z,2.00
2023-02-03T17:04:44.619Z,1.80
2023-02-03T17:07:12.002Z,2.43
2023-02-03T17:09:39.410Z,2.13
2023-02-03T17:12:06.926Z,2.57
2023-02-03T17:14:34.353Z,4.93
2023-02-03T17:17:01.930Z,9.07
2023-02-03T17:19:29.409Z,7.80
2023-02-03T17:21:57.173Z,2.43
2023-02-03T17:24:25.277Z,3.47
2023-02-03T17:26:56.081Z,4.17
2023-02-03T17:29:24.805Z,5.10
2023-02-03T17:31:52.399Z,2.70
2023-02-03T17:34:19.930Z,1.77
2023-02-03T17:36:47.661Z,2.87
2023-02-03T17:55:31.244Z,1.67
2023-02-03T17:57:59.323Z,1.30
2023-02-03T18:00:27.111Z,1.23
2023-02-03T18:02:54.584Z,2.17
2023-02-03T18:05:22.212Z,1.67
2023-02-03T18:07:50.286Z,1.40
2023-02-03T18:10:18.203Z,2.10
2023-02-03T18:12:45.567Z,1.23
2023-02-03T18:15:13.208Z,1.70
2023-02-03T18:17:40.884Z,1.37
2023-02-03T18:20:08.922Z,1.63
2023-02-03T18:22:36.773Z,2.07
2023-02-03T18:25:04.673Z,2.40
2023-02-03T18:27:32.314Z,1.40
2023-02-03T18:29:59.823Z,2.20
2023-02-03T18:32:27.621Z,1.08
2023-02-03T18:34:55.116Z,0.87
2023-02-03T18:37:22.523Z,4.47
2023-02-03T18:39:49.911Z,0.90
2023-02-03T18:42:17.551Z,1.47
2023-02-03T18:44:44.928Z,0.93
2023-02-03T18:47:12.445Z,1.93
2023-02-03T18:49:41.585Z,2.57
2023-02-03T18:52:08.938Z,3.70
2023-02-03T18:54:36.693Z,2.47
2023-02-03T18:57:05.175Z,2.67
2023-02-03T18:59:32.613Z,3.43
2023-02-03T19:02:00.303Z,1.73
2023-02-03T19:04:27.971Z,0.83
2023-02-03T19:06:55.490Z,1.70
2023-02-03T19:09:24.286Z,1.40
2023-02-03T19:11:51.800Z,1.52
2023-02-03T19:14:20.499Z,1.97
2023-02-03T19:16:50.690Z,0.90
2023-02-03T19:19:21.452Z,2.27
2023-02-03T19:21:49.366Z,4.27
2023-02-03T19:24:17.218Z,2.13
2023-02-03T19:26:44.671Z,1.50
2023-02-03T19:29:12.069Z,2.40
2023-02-03T19:31:39.876Z,8.83
2023-02-03T19:34:07.492Z,10.17
2023-02-03T19:36:34.928Z,4.93
2023-02-03T19:39:03.502Z,2.83
2023-02-03T19:41:31.505Z,3.30
2023-02-03T19:43:59.366Z,6.07
2023-02-03T19:46:27.579Z,5.63
2023-02-03T19:48:55.121Z,5.40
2023-02-03T19:51:22.667Z,5.17
2023-02-03T19:53:51.941Z,4.67
2023-02-03T19:56:20.453Z,3.60
2023-02-03T19:58:52.308Z,1.77
2023-02-03T20:01:23.649Z,1.00
2023-02-03T20:03:51.465Z,1.33
2023-02-03T20:06:19.269Z,1.65
2023-02-03T20:08:47.117Z,1.00
2023-02-03T20:11:14.464Z,1.47
2023-02-03T20:13:43.806Z,1.33
2023-02-03T20:16:11.718Z,1.70
2023-02-03T20:18:39.461Z,1.87
2023-02-03T20:21:07.101Z,3.00
2023-02-03T20:23:34.570Z,1.40
2023-02-03T20:26:02.209Z,1.30
2023-02-03T20:28:29.865Z,0.93
2023-02-03T20:31:00.643Z,0.93
2023-02-03T20:33:29.041Z,0.60
2023-02-03T20:35:57.111Z,0.80
2023-02-03T20:38:24.987Z,3.57
2023-02-03T20:40:52.782Z,1.10
2023-02-03T20:43:21.972Z,1.43
2023-02-03T20:45:50.251Z,0.93
2023-02-03T20:48:18.794Z,2.53
2023-02-03T20:50:50.594Z,0.60
2023-02-03T20:53:19.945Z,1.67
2023-02-03T20:55:48.389Z,1.30
2023-02-03T20:58:26.536Z,1.17
2023-02-03T21:00:54.052Z,1.40
2023-02-03T21:03:40.247Z,1.43
2023-02-03T21:06:16.620Z,1.20
2023-02-03T21:08:44.867Z,1.10
2023-02-03T21:11:27.027Z,0.80
2023-02-03T21:13:54.462Z,3.23
2023-02-03T21:16:25.512Z,1.63
2023-02-03T21:18:54.380Z,1.27
2023-02-03T21:21:35.421Z,1.57
2023-02-03T21:24:06.230Z,2.57
2023-02-03T21:26:34.161Z,1.60
2023-02-03T21:29:02.084Z,4.03
2023-02-03T21:31:31.455Z,2.77
2023-02-03T21:34:21.826Z,2.43
2023-02-03T21:36:49.348Z,2.10
2023-02-03T21:39:33.429Z,2.47
2023-02-03T21:42:41.470Z,5.10
2023-02-03T21:45:18.034Z,3.70
2023-02-03T21:47:46.549Z,5.53
2023-02-03T21:50:31.935Z,2.80
2023-02-03T21:53:08.864Z,6.60
2023-02-03T21:55:37.109Z,6.97
2023-02-03T21:58:31.588Z,5.87
2023-02-03T22:01:00.067Z,5.03
2023-02-03T22:03:35.750Z,7.37
2023-02-03T22:06:08.400Z,7.27
2023-02-03T22:08:57.000Z,6.17
2023-02-03T22:11:26.942Z,4.83
2023-02-03T22:13:54.506Z,2.90
2023-02-03T22:16:22.151Z,3.27
2023-02-03T22:18:49.901Z,7.30
2023-02-03T22:21:17.667Z,2.93
2023-02-03T22:23:45.345Z,4.40
2023-02-03T22:26:13.303Z,2.80
2023-02-03T22:28:41.022Z,4.23
2023-02-03T22:31:09.450Z,5.47
2023-02-03T22:33:37.495Z,3.03
2023-02-03T22:36:06.797Z,2.07
2023-02-03T22:38:34.963Z,4.57
2023-02-03T22:41:02.375Z,8.47
2023-02-03T22:43:31.170Z,6.67
2023-02-03T22:45:58.782Z,6.93
2023-02-03T22:48:26.719Z,5.50
2023-02-03T22:50:54.259Z,4.43
2023-02-03T22:53:21.652Z,7.25
2023-02-03T22:55:49.415Z,9.50
2023-02-03T22:58:17.033Z,7.20
2023-02-03T23:00:44.414Z,4.17
2023-02-03T23:03:11.906Z,7.37
2023-02-03T23:05:39.502Z,12.10
2023-02-03T23:08:06.972Z,8.83
2023-02-03T23:10:34.602Z,11.93
2023-02-03T23:13:02.478Z,4.83
2023-02-03T23:15:30.284Z,7.57
2023-02-03T23:17:58.099Z,8.73
2023-02-03T23:20:25.559Z,9.80
2023-02-03T23:22:53.274Z,9.47
2023-02-03T23:25:20.670Z,7.10
2023-02-03T23:27:48.307Z,8.30
2023-02-03T23:30:16.072Z,5.10
2023-02-03T23:32:43.705Z,9.30
2023-02-03T23:35:29.918Z,10.43
2023-02-03T23:37:57.271Z,10.13
2023-02-03T23:40:24.969Z,9.67
2023-02-03T23:42:52.598Z,9.50
2023-02-03T23:45:20.236Z,10.53
2023-02-03T23:47:47.909Z,12.33
2023-02-03T23:50:16.548Z,6.30
2023-02-03T23:52:44.160Z,9.27
2023-02-03T23:55:16.747Z,11.10
2023-02-03T23:57:44.234Z,9.43
